Skip Navigation LinksHome page > Weather > Current weather Skip Navigation Links

Current Weather

Eureka, Nunavut

For information only: do not use for flight planning or navigation.
Latest weather
Observation time Wednesday, January 18, 2017 7:00 AM CST
Local time Wednesday, January 18, 2017 8:00 AM CST
Flight conditions Visual Meteorological Conditions
Winds
Wind direction Southeast (140°)
Wind speed 20 mph
Visibility 10 mi.
Present weather ice crystals, drifting snow
Sky condition
Ceiling unlimited
Sky clear
Temperature -24°F
Dewpoint -29°F
Altimeter 29.52 in.Hg
Derived measurements
Relative humidity 75%
Wind chill -53°F
Density altitude -5530 ft.
Sea-level pressure 29.53 in.Hg
METAR CWEU 181300Z 14017KT 10SM IC DRSN SKC M31/M34 A2952 RMK SLP001

Settings

Location code

InnerDrive.Weather 4.0.6144.1 Release CLR 4.0.30319.34209
Copyright ©2015 Inner Drive Technology. All rights reserved. Portions Copyright ©1986-2015 David Braverman.

Find weather

Site navigation


Skip Navigation Links

Place info

Page info

PayPal - The safer, easier way to pay online!

Return home.

Copyright ©2017 Inner Drive Technology. Purveyors of fine, hand-crafted computer software. Page printed 2017-01-18T14:00:47 UTC.